sensor_id;sensor_type;location;lat;lon;timestamp;P1;durP1;ratioP1;P2;durP2;ratioP2
69414;SDS011;56608;43.530;-5.652;2022-11-27T00:00:55;12.82;;;6.65;;
69414;SDS011;56608;43.530;-5.652;2022-11-27T00:01:57;11.50;;;6.90;;
69414;SDS011;56608;43.530;-5.652;2022-11-27T00:02:58;13.00;;;6.82;;
69414;SDS011;56608;43.530;-5.652;2022-11-27T00:04:00;9.63;;;6.20;;
69414;SDS011;56608;43.530;-5.652;2022-11-27T00:05:01;11.50;;;6.25;;
69414;SDS011;56608;43.530;-5.652;2022-11-27T00:06:02;10.70;;;6.30;;
69414;SDS011;56608;43.530;-5.652;2022-11-27T00:07:04;12.45;;;6.10;;
69414;SDS011;56608;43.530;-5.652;2022-11-27T00:08:05;13.10;;;6.45;;
69414;SDS011;56608;43.530;-5.652;2022-11-27T00:09:09;13.60;;;7.03;;
69414;SDS011;56608;43.530;-5.652;2022-11-27T00:10:13;11.75;;;7.00;;
69414;SDS011;56608;43.530;-5.652;2022-11-27T00:11:19;13.25;;;6.95;;
69414;SDS011;56608;43.530;-5.652;2022-11-27T00:12:22;13.45;;;6.70;;
69414;SDS011;56608;43.530;-5.652;2022-11-27T00:13:23;13.90;;;7.35;;
69414;SDS011;56608;43.530;-5.652;2022-11-27T00:14:24;12.43;;;6.30;;
69414;SDS011;56608;43.530;-5.652;2022-11-27T00:15:26;14.93;;;7.12;;
69414;SDS011;56608;43.530;-5.652;2022-11-27T00:16:27;12.30;;;6.80;;
69414;SDS011;56608;43.530;-5.652;2022-11-27T00:17:29;12.68;;;6.60;;
69414;SDS011;56608;43.530;-5.652;2022-11-27T00:18:30;12.80;;;7.30;;
69414;SDS011;56608;43.530;-5.652;2022-11-27T00:19:32;14.07;;;6.90;;
69414;SDS011;56608;43.530;-5.652;2022-11-27T00:20:33;13.35;;;7.60;;
69414;SDS011;56608;43.530;-5.652;2022-11-27T00:21:35;14.75;;;7.30;;
69414;SDS011;56608;43.530;-5.652;2022-11-27T00:22:37;13.57;;;8.13;;
69414;SDS011;56608;43.530;-5.652;2022-11-27T00:23:39;15.70;;;7.70;;
69414;SDS011;56608;43.530;-5.652;2022-11-27T00:24:41;12.93;;;6.53;;
69414;SDS011;56608;43.530;-5.652;2022-11-27T00:25:52;12.05;;;7.22;;
69414;SDS011;56608;43.530;-5.652;2022-11-27T00:26:54;10.02;;;6.68;;
69414;SDS011;56608;43.530;-5.652;2022-11-27T00:27:55;12.30;;;7.10;;
69414;SDS011;56608;43.530;-5.652;2022-11-27T00:28:57;13.35;;;6.85;;
69414;SDS011;56608;43.530;-5.652;2022-11-27T00:29:57;12.13;;;6.87;;
69414;SDS011;56608;43.530;-5.652;2022-11-27T00:31:00;12.48;;;7.35;;
69414;SDS011;56608;43.530;-5.652;2022-11-27T00:32:03;11.38;;;6.87;;
69414;SDS011;56608;43.530;-5.652;2022-11-27T00:33:08;10.65;;;6.62;;
69414;SDS011;56608;43.530;-5.652;2022-11-27T00:34:09;13.45;;;6.80;;
69414;SDS011;56608;43.530;-5.652;2022-11-27T00:35:11;11.33;;;6.97;;
69414;SDS011;56608;43.530;-5.652;2022-11-27T00:37:14;12.13;;;5.65;;
69414;SDS011;56608;43.530;-5.652;2022-11-27T00:38:15;11.25;;;5.18;;
69414;SDS011;56608;43.530;-5.652;2022-11-27T00:39:16;10.30;;;4.78;;
69414;SDS011;56608;43.530;-5.652;2022-11-27T00:40:18;8.80;;;4.60;;
69414;SDS011;56608;43.530;-5.652;2022-11-27T00:41:20;7.07;;;4.50;;
69414;SDS011;56608;43.530;-5.652;2022-11-27T00:42:24;6.97;;;4.45;;
69414;SDS011;56608;43.530;-5.652;2022-11-27T00:43:25;8.50;;;4.60;;
69414;SDS011;56608;43.530;-5.652;2022-11-27T00:44:26;9.40;;;4.60;;
69414;SDS011;56608;43.530;-5.652;2022-11-27T00:45:27;7.72;;;4.47;;
69414;SDS011;56608;43.530;-5.652;2022-11-27T00:46:29;5.85;;;4.10;;
69414;SDS011;56608;43.530;-5.652;2022-11-27T00:47:32;7.07;;;4.12;;
69414;SDS011;56608;43.530;-5.652;2022-11-27T00:48:34;7.30;;;4.10;;
69414;SDS011;56608;43.530;-5.652;2022-11-27T00:50:36;9.35;;;4.07;;
69414;SDS011;56608;43.530;-5.652;2022-11-27T00:51:38;6.25;;;3.70;;
69414;SDS011;56608;43.530;-5.652;2022-11-27T00:52:39;7.85;;;3.85;;
69414;SDS011;56608;43.530;-5.652;2022-11-27T00:53:41;7.07;;;3.90;;
69414;SDS011;56608;43.530;-5.652;2022-11-27T00:54:42;6.10;;;3.80;;
69414;SDS011;56608;43.530;-5.652;2022-11-27T00:55:47;6.32;;;3.40;;
69414;SDS011;56608;43.530;-5.652;2022-11-27T00:56:48;7.53;;;3.53;;
69414;SDS011;56608;43.530;-5.652;2022-11-27T00:57:49;5.47;;;3.50;;
69414;SDS011;56608;43.530;-5.652;2022-11-27T00:58:50;5.07;;;2.97;;
69414;SDS011;56608;43.530;-5.652;2022-11-27T00:59:52;4.90;;;3.58;;
69414;SDS011;56608;43.530;-5.652;2022-11-27T01:00:53;6.23;;;3.20;;
69414;SDS011;56608;43.530;-5.652;2022-11-27T01:01:55;6.97;;;3.58;;
69414;SDS011;56608;43.530;-5.652;2022-11-27T01:02:56;6.25;;;3.50;;
69414;SDS011;56608;43.530;-5.652;2022-11-27T01:03:58;6.47;;;3.60;;
69414;SDS011;56608;43.530;-5.652;2022-11-27T01:05:01;7.97;;;3.42;;
69414;SDS011;56608;43.530;-5.652;2022-11-27T01:06:03;8.02;;;3.90;;
69414;SDS011;56608;43.530;-5.652;2022-11-27T01:07:05;5.55;;;3.37;;
69414;SDS011;56608;43.530;-5.652;2022-11-27T01:08:07;5.18;;;3.28;;
69414;SDS011;56608;43.530;-5.652;2022-11-27T01:09:09;4.20;;;3.10;;
69414;SDS011;56608;43.530;-5.652;2022-11-27T01:10:12;5.12;;;2.78;;
69414;SDS011;56608;43.530;-5.652;2022-11-27T01:11:14;5.35;;;3.10;;
69414;SDS011;56608;43.530;-5.652;2022-11-27T01:12:17;4.70;;;2.70;;
69414;SDS011;56608;43.530;-5.652;2022-11-27T01:13:20;6.97;;;3.12;;
69414;SDS011;56608;43.530;-5.652;2022-11-27T01:14:23;7.45;;;3.37;;
69414;SDS011;56608;43.530;-5.652;2022-11-27T01:15:25;12.85;;;4.03;;
69414;SDS011;56608;43.530;-5.652;2022-11-27T01:16:26;7.33;;;4.00;;
69414;SDS011;56608;43.530;-5.652;2022-11-27T01:17:28;6.05;;;3.42;;
69414;SDS011;56608;43.530;-5.652;2022-11-27T01:18:30;5.75;;;2.83;;
69414;SDS011;56608;43.530;-5.652;2022-11-27T01:19:32;4.78;;;2.92;;
69414;SDS011;56608;43.530;-5.652;2022-11-27T01:20:36;4.85;;;2.95;;
69414;SDS011;56608;43.530;-5.652;2022-11-27T01:21:39;5.68;;;2.72;;
69414;SDS011;56608;43.530;-5.652;2022-11-27T01:22:41;4.47;;;2.87;;
69414;SDS011;56608;43.530;-5.652;2022-11-27T01:23:42;3.80;;;2.70;;
69414;SDS011;56608;43.530;-5.652;2022-11-27T01:24:43;4.57;;;2.67;;
69414;SDS011;56608;43.530;-5.652;2022-11-27T01:25:45;4.10;;;2.60;;
69414;SDS011;56608;43.530;-5.652;2022-11-27T01:26:46;5.20;;;2.85;;
69414;SDS011;56608;43.530;-5.652;2022-11-27T01:27:48;5.18;;;2.60;;
69414;SDS011;56608;43.530;-5.652;2022-11-27T01:28:53;4.95;;;2.80;;
69414;SDS011;56608;43.530;-5.652;2022-11-27T01:29:55;5.32;;;3.08;;
69414;SDS011;56608;43.530;-5.652;2022-11-27T01:30:56;4.90;;;3.10;;
69414;SDS011;56608;43.530;-5.652;2022-11-27T01:31:58;3.50;;;2.70;;
69414;SDS011;56608;43.530;-5.652;2022-11-27T01:32:59;6.87;;;3.22;;
69414;SDS011;56608;43.530;-5.652;2022-11-27T01:34:03;6.40;;;2.80;;
69414;SDS011;56608;43.530;-5.652;2022-11-27T01:35:07;5.00;;;2.72;;
69414;SDS011;56608;43.530;-5.652;2022-11-27T01:36:09;5.70;;;3.15;;
69414;SDS011;56608;43.530;-5.652;2022-11-27T01:37:12;5.10;;;2.70;;
69414;SDS011;56608;43.530;-5.652;2022-11-27T01:38:13;5.45;;;3.00;;
69414;SDS011;56608;43.530;-5.652;2022-11-27T01:39:16;4.93;;;3.10;;
69414;SDS011;56608;43.530;-5.652;2022-11-27T01:40:19;7.40;;;3.65;;
69414;SDS011;56608;43.530;-5.652;2022-11-27T01:41:25;5.95;;;3.40;;
69414;SDS011;56608;43.530;-5.652;2022-11-27T01:42:30;6.20;;;3.35;;
69414;SDS011;56608;43.530;-5.652;2022-11-27T01:45:01;9.38;;;4.28;;
69414;SDS011;56608;43.530;-5.652;2022-11-27T01:46:01;8.23;;;4.03;;
69414;SDS011;56608;43.530;-5.652;2022-11-27T01:47:04;6.20;;;3.60;;
69414;SDS011;56608;43.530;-5.652;2022-11-27T01:48:12;6.15;;;3.62;;
69414;SDS011;56608;43.530;-5.652;2022-11-27T01:50:37;6.15;;;3.55;;
69414;SDS011;56608;43.530;-5.652;2022-11-27T01:51:41;11.75;;;3.80;;
69414;SDS011;56608;43.530;-5.652;2022-11-27T01:52:47;7.47;;;4.70;;
69414;SDS011;56608;43.530;-5.652;2022-11-27T01:53:51;6.43;;;4.28;;
69414;SDS011;56608;43.530;-5.652;2022-11-27T01:54:58;8.48;;;5.47;;
69414;SDS011;56608;43.530;-5.652;2022-11-27T01:56:04;16.12;;;8.27;;
69414;SDS011;56608;43.530;-5.652;2022-11-27T01:57:14;7.32;;;4.62;;
69414;SDS011;56608;43.530;-5.652;2022-11-27T01:58:23;7.28;;;4.18;;
69414;SDS011;56608;43.530;-5.652;2022-11-27T01:59:27;5.62;;;4.00;;
69414;SDS011;56608;43.530;-5.652;2022-11-27T02:00:29;7.80;;;4.20;;
69414;SDS011;56608;43.530;-5.652;2022-11-27T02:01:31;7.03;;;4.28;;
69414;SDS011;56608;43.530;-5.652;2022-11-27T02:02:32;7.10;;;4.28;;
69414;SDS011;56608;43.530;-5.652;2022-11-27T02:03:33;9.63;;;4.15;;
69414;SDS011;56608;43.530;-5.652;2022-11-27T02:04:34;6.30;;;3.85;;
69414;SDS011;56608;43.530;-5.652;2022-11-27T02:05:36;8.60;;;4.28;;
69414;SDS011;56608;43.530;-5.652;2022-11-27T02:06:36;6.90;;;3.80;;
69414;SDS011;56608;43.530;-5.652;2022-11-27T02:07:38;8.00;;;4.00;;
69414;SDS011;56608;43.530;-5.652;2022-11-27T02:08:40;5.68;;;4.18;;
69414;SDS011;56608;43.530;-5.652;2022-11-27T02:09:42;9.20;;;4.20;;
69414;SDS011;56608;43.530;-5.652;2022-11-27T02:10:55;9.68;;;4.03;;
69414;SDS011;56608;43.530;-5.652;2022-11-27T02:15:29;6.85;;;3.65;;
69414;SDS011;56608;43.530;-5.652;2022-11-27T02:18:27;6.68;;;3.55;;
69414;SDS011;56608;43.530;-5.652;2022-11-27T02:27:42;6.93;;;3.58;;
69414;SDS011;56608;43.530;-5.652;2022-11-27T02:30:10;4.53;;;2.58;;
69414;SDS011;56608;43.530;-5.652;2022-11-27T02:31:14;3.75;;;2.75;;
69414;SDS011;56608;43.530;-5.652;2022-11-27T02:32:23;6.45;;;3.00;;
69414;SDS011;56608;43.530;-5.652;2022-11-27T02:33:26;4.45;;;2.75;;
69414;SDS011;56608;43.530;-5.652;2022-11-27T02:35:48;5.40;;;3.20;;
69414;SDS011;56608;43.530;-5.652;2022-11-27T02:36:57;3.97;;;2.83;;
69414;SDS011;56608;43.530;-5.652;2022-11-27T02:38:22;5.07;;;2.53;;
69414;SDS011;56608;43.530;-5.652;2022-11-27T02:39:37;5.62;;;2.80;;
69414;SDS011;56608;43.530;-5.652;2022-11-27T02:42:00;5.28;;;2.80;;
69414;SDS011;56608;43.530;-5.652;2022-11-27T02:43:11;3.83;;;2.47;;
69414;SDS011;56608;43.530;-5.652;2022-11-27T02:44:16;6.03;;;2.78;;
69414;SDS011;56608;43.530;-5.652;2022-11-27T02:45:21;4.32;;;2.60;;
69414;SDS011;56608;43.530;-5.652;2022-11-27T02:46:26;6.93;;;3.20;;
69414;SDS011;56608;43.530;-5.652;2022-11-27T02:47:28;5.90;;;2.85;;
69414;SDS011;56608;43.530;-5.652;2022-11-27T02:48:35;6.12;;;2.90;;
69414;SDS011;56608;43.530;-5.652;2022-11-27T02:49:40;5.35;;;2.70;;
69414;SDS011;56608;43.530;-5.652;2022-11-27T02:50:44;4.50;;;2.97;;
69414;SDS011;56608;43.530;-5.652;2022-11-27T02:51:50;4.10;;;2.97;;
69414;SDS011;56608;43.530;-5.652;2022-11-27T02:52:57;4.87;;;3.03;;
69414;SDS011;56608;43.530;-5.652;2022-11-27T02:54:03;4.60;;;2.60;;
69414;SDS011;56608;43.530;-5.652;2022-11-27T02:55:08;5.87;;;2.33;;
69414;SDS011;56608;43.530;-5.652;2022-11-27T02:56:15;4.43;;;2.53;;
69414;SDS011;56608;43.530;-5.652;2022-11-27T02:57:20;6.32;;;2.35;;
69414;SDS011;56608;43.530;-5.652;2022-11-27T02:58:25;3.50;;;2.10;;
69414;SDS011;56608;43.530;-5.652;2022-11-27T02:59:28;6.95;;;2.70;;
69414;SDS011;56608;43.530;-5.652;2022-11-27T03:00:33;5.85;;;3.00;;
69414;SDS011;56608;43.530;-5.652;2022-11-27T03:01:37;4.80;;;2.47;;
69414;SDS011;56608;43.530;-5.652;2022-11-27T03:02:44;4.72;;;2.40;;
69414;SDS011;56608;43.530;-5.652;2022-11-27T03:03:51;8.10;;;3.15;;
69414;SDS011;56608;43.530;-5.652;2022-11-27T03:04:55;6.07;;;2.53;;
69414;SDS011;56608;43.530;-5.652;2022-11-27T03:06:01;4.97;;;2.70;;
69414;SDS011;56608;43.530;-5.652;2022-11-27T03:07:08;4.53;;;2.60;;
69414;SDS011;56608;43.530;-5.652;2022-11-27T03:08:41;5.10;;;2.78;;
69414;SDS011;56608;43.530;-5.652;2022-11-27T03:09:49;5.12;;;2.50;;
69414;SDS011;56608;43.530;-5.652;2022-11-27T03:10:59;8.02;;;2.95;;
69414;SDS011;56608;43.530;-5.652;2022-11-27T03:12:04;4.47;;;2.50;;
69414;SDS011;56608;43.530;-5.652;2022-11-27T03:13:08;6.37;;;2.83;;
69414;SDS011;56608;43.530;-5.652;2022-11-27T03:15:11;6.12;;;2.60;;
69414;SDS011;56608;43.530;-5.652;2022-11-27T03:18:38;6.07;;;2.60;;
69414;SDS011;56608;43.530;-5.652;2022-11-27T03:20:24;5.32;;;2.60;;
69414;SDS011;56608;43.530;-5.652;2022-11-27T03:21:36;4.45;;;2.30;;
69414;SDS011;56608;43.530;-5.652;2022-11-27T03:23:41;4.12;;;2.12;;
69414;SDS011;56608;43.530;-5.652;2022-11-27T03:24:42;4.77;;;2.33;;
69414;SDS011;56608;43.530;-5.652;2022-11-27T03:25:44;6.35;;;2.75;;
69414;SDS011;56608;43.530;-5.652;2022-11-27T03:26:45;4.43;;;2.35;;
69414;SDS011;56608;43.530;-5.652;2022-11-27T03:27:48;4.03;;;2.45;;
69414;SDS011;56608;43.530;-5.652;2022-11-27T03:28:54;4.28;;;2.35;;
69414;SDS011;56608;43.530;-5.652;2022-11-27T03:29:57;6.32;;;2.67;;
69414;SDS011;56608;43.530;-5.652;2022-11-27T03:31:01;5.12;;;2.72;;
69414;SDS011;56608;43.530;-5.652;2022-11-27T03:32:02;7.18;;;3.28;;
69414;SDS011;56608;43.530;-5.652;2022-11-27T03:33:05;6.40;;;2.85;;
69414;SDS011;56608;43.530;-5.652;2022-11-27T03:34:06;6.20;;;2.90;;
69414;SDS011;56608;43.530;-5.652;2022-11-27T03:35:08;4.68;;;2.53;;
69414;SDS011;56608;43.530;-5.652;2022-11-27T03:36:13;4.32;;;2.40;;
69414;SDS011;56608;43.530;-5.652;2022-11-27T03:37:16;4.60;;;2.33;;
69414;SDS011;56608;43.530;-5.652;2022-11-27T03:38:18;5.60;;;2.70;;
69414;SDS011;56608;43.530;-5.652;2022-11-27T03:39:18;6.00;;;3.10;;
69414;SDS011;56608;43.530;-5.652;2022-11-27T03:40:22;4.45;;;2.60;;
69414;SDS011;56608;43.530;-5.652;2022-11-27T03:42:53;7.50;;;3.28;;
69414;SDS011;56608;43.530;-5.652;2022-11-27T03:45:47;3.65;;;2.53;;
69414;SDS011;56608;43.530;-5.652;2022-11-27T03:57:41;5.03;;;3.03;;
69414;SDS011;56608;43.530;-5.652;2022-11-27T03:59:22;4.50;;;3.00;;
69414;SDS011;56608;43.530;-5.652;2022-11-27T04:00:26;5.50;;;3.00;;
69414;SDS011;56608;43.530;-5.652;2022-11-27T04:01:31;4.95;;;2.83;;
69414;SDS011;56608;43.530;-5.652;2022-11-27T04:02:46;6.50;;;3.50;;
69414;SDS011;56608;43.530;-5.652;2022-11-27T04:03:50;5.55;;;3.03;;
69414;SDS011;56608;43.530;-5.652;2022-11-27T04:04:51;6.85;;;3.10;;
69414;SDS011;56608;43.530;-5.652;2022-11-27T04:05:53;6.20;;;3.40;;
69414;SDS011;56608;43.530;-5.652;2022-11-27T04:06:54;5.07;;;3.20;;
69414;SDS011;56608;43.530;-5.652;2022-11-27T04:07:55;7.60;;;3.00;;
69414;SDS011;56608;43.530;-5.652;2022-11-27T04:08:57;4.72;;;2.90;;
69414;SDS011;56608;43.530;-5.652;2022-11-27T04:09:58;4.40;;;2.80;;
69414;SDS011;56608;43.530;-5.652;2022-11-27T04:10:59;4.32;;;2.42;;
69414;SDS011;56608;43.530;-5.652;2022-11-27T04:12:01;6.15;;;2.80;;
69414;SDS011;56608;43.530;-5.652;2022-11-27T04:13:02;7.53;;;3.30;;
69414;SDS011;56608;43.530;-5.652;2022-11-27T04:14:04;5.72;;;3.37;;
69414;SDS011;56608;43.530;-5.652;2022-11-27T04:16:06;5.55;;;3.00;;
69414;SDS011;56608;43.530;-5.652;2022-11-27T04:17:07;5.00;;;2.60;;
69414;SDS011;56608;43.530;-5.652;2022-11-27T04:18:09;4.72;;;2.60;;
69414;SDS011;56608;43.530;-5.652;2022-11-27T04:19:11;5.68;;;3.03;;
69414;SDS011;56608;43.530;-5.652;2022-11-27T04:20:13;6.53;;;3.03;;
69414;SDS011;56608;43.530;-5.652;2022-11-27T04:21:15;4.35;;;2.47;;
69414;SDS011;56608;43.530;-5.652;2022-11-27T04:23:18;5.57;;;2.60;;
69414;SDS011;56608;43.530;-5.652;2022-11-27T04:24:19;5.80;;;2.40;;
69414;SDS011;56608;43.530;-5.652;2022-11-27T04:25:21;6.32;;;2.35;;
69414;SDS011;56608;43.530;-5.652;2022-11-27T04:26:22;4.90;;;2.50;;
69414;SDS011;56608;43.530;-5.652;2022-11-27T04:28:25;4.62;;;2.08;;
69414;SDS011;56608;43.530;-5.652;2022-11-27T04:29:26;4.03;;;2.60;;
69414;SDS011;56608;43.530;-5.652;2022-11-27T04:30:27;4.13;;;2.30;;
69414;SDS011;56608;43.530;-5.652;2022-11-27T04:31:29;5.30;;;2.28;;
69414;SDS011;56608;43.530;-5.652;2022-11-27T04:32:30;3.53;;;2.17;;
69414;SDS011;56608;43.530;-5.652;2022-11-27T04:33:32;4.63;;;2.37;;
69414;SDS011;56608;43.530;-5.652;2022-11-27T04:34:33;5.85;;;2.40;;
69414;SDS011;56608;43.530;-5.652;2022-11-27T04:35:35;7.50;;;2.90;;
69414;SDS011;56608;43.530;-5.652;2022-11-27T04:36:35;5.90;;;2.95;;
69414;SDS011;56608;43.530;-5.652;2022-11-27T04:37:37;4.22;;;2.62;;
69414;SDS011;56608;43.530;-5.652;2022-11-27T04:38:38;5.43;;;3.07;;
69414;SDS011;56608;43.530;-5.652;2022-11-27T04:39:40;7.03;;;2.30;;
69414;SDS011;56608;43.530;-5.652;2022-11-27T04:40:41;3.60;;;2.35;;
69414;SDS011;56608;43.530;-5.652;2022-11-27T04:41:42;3.65;;;2.40;;
69414;SDS011;56608;43.530;-5.652;2022-11-27T04:42:44;4.43;;;2.50;;
69414;SDS011;56608;43.530;-5.652;2022-11-27T04:43:45;5.78;;;2.20;;
69414;SDS011;56608;43.530;-5.652;2022-11-27T04:44:45;4.57;;;2.40;;
69414;SDS011;56608;43.530;-5.652;2022-11-27T04:45:47;6.62;;;2.53;;
69414;SDS011;56608;43.530;-5.652;2022-11-27T04:46:49;3.92;;;1.98;;
69414;SDS011;56608;43.530;-5.652;2022-11-27T04:47:50;5.18;;;2.05;;
69414;SDS011;56608;43.530;-5.652;2022-11-27T04:48:51;4.23;;;2.00;;
69414;SDS011;56608;43.530;-5.652;2022-11-27T04:49:53;3.70;;;1.83;;
69414;SDS011;56608;43.530;-5.652;2022-11-27T04:50:54;4.40;;;2.00;;
69414;SDS011;56608;43.530;-5.652;2022-11-27T04:51:55;2.78;;;1.35;;
69414;SDS011;56608;43.530;-5.652;2022-11-27T04:52:57;2.75;;;1.67;;
69414;SDS011;56608;43.530;-5.652;2022-11-27T04:53:59;3.90;;;1.90;;
69414;SDS011;56608;43.530;-5.652;2022-11-27T04:55:01;2.95;;;1.70;;
69414;SDS011;56608;43.530;-5.652;2022-11-27T04:57:04;4.75;;;2.05;;
69414;SDS011;56608;43.530;-5.652;2022-11-27T04:59:06;2.95;;;1.70;;
69414;SDS011;56608;43.530;-5.652;2022-11-27T05:00:08;4.20;;;2.20;;
69414;SDS011;56608;43.530;-5.652;2022-11-27T05:01:10;3.35;;;1.70;;
69414;SDS011;56608;43.530;-5.652;2022-11-27T05:02:11;3.03;;;2.00;;
69414;SDS011;56608;43.530;-5.652;2022-11-27T05:03:12;3.10;;;1.87;;
69414;SDS011;56608;43.530;-5.652;2022-11-27T05:04:14;3.35;;;2.00;;
69414;SDS011;56608;43.530;-5.652;2022-11-27T05:05:15;2.55;;;1.50;;
69414;SDS011;56608;43.530;-5.652;2022-11-27T05:07:16;3.95;;;1.75;;
69414;SDS011;56608;43.530;-5.652;2022-11-27T05:08:18;3.60;;;1.60;;
69414;SDS011;56608;43.530;-5.652;2022-11-27T05:09:20;4.95;;;1.92;;
69414;SDS011;56608;43.530;-5.652;2022-11-27T05:10:20;3.70;;;1.70;;
69414;SDS011;56608;43.530;-5.652;2022-11-27T05:11:22;3.92;;;1.65;;
69414;SDS011;56608;43.530;-5.652;2022-11-27T05:12:23;2.90;;;1.60;;
69414;SDS011;56608;43.530;-5.652;2022-11-27T05:13:24;3.05;;;1.70;;
69414;SDS011;56608;43.530;-5.652;2022-11-27T05:14:26;3.08;;;1.40;;
69414;SDS011;56608;43.530;-5.652;2022-11-27T05:15:29;2.70;;;1.60;;
69414;SDS011;56608;43.530;-5.652;2022-11-27T05:16:30;3.65;;;1.73;;
69414;SDS011;56608;43.530;-5.652;2022-11-27T05:17:31;2.80;;;1.90;;
69414;SDS011;56608;43.530;-5.652;2022-11-27T05:18:32;3.30;;;1.90;;
69414;SDS011;56608;43.530;-5.652;2022-11-27T05:19:34;4.82;;;1.65;;
69414;SDS011;56608;43.530;-5.652;2022-11-27T05:20:34;3.95;;;1.70;;
69414;SDS011;56608;43.530;-5.652;2022-11-27T05:21:36;3.78;;;1.73;;
69414;SDS011;56608;43.530;-5.652;2022-11-27T05:22:38;4.15;;;1.70;;
69414;SDS011;56608;43.530;-5.652;2022-11-27T05:23:39;3.53;;;1.60;;
69414;SDS011;56608;43.530;-5.652;2022-11-27T05:24:41;3.28;;;1.67;;
69414;SDS011;56608;43.530;-5.652;2022-11-27T05:25:42;4.22;;;1.90;;
69414;SDS011;56608;43.530;-5.652;2022-11-27T05:26:44;3.40;;;1.70;;
69414;SDS011;56608;43.530;-5.652;2022-11-27T05:27:45;2.95;;;1.37;;
69414;SDS011;56608;43.530;-5.652;2022-11-27T05:28:47;2.00;;;1.30;;
69414;SDS011;56608;43.530;-5.652;2022-11-27T05:29:48;2.83;;;1.10;;
69414;SDS011;56608;43.530;-5.652;2022-11-27T05:30:50;2.62;;;1.40;;
69414;SDS011;56608;43.530;-5.652;2022-11-27T05:31:51;1.85;;;1.40;;
69414;SDS011;56608;43.530;-5.652;2022-11-27T05:32:53;2.87;;;1.42;;
69414;SDS011;56608;43.530;-5.652;2022-11-27T05:33:54;3.30;;;1.40;;
69414;SDS011;56608;43.530;-5.652;2022-11-27T05:34:56;2.12;;;1.33;;
69414;SDS011;56608;43.530;-5.652;2022-11-27T05:35:56;2.95;;;1.20;;
69414;SDS011;56608;43.530;-5.652;2022-11-27T05:36:58;2.70;;;1.40;;
69414;SDS011;56608;43.530;-5.652;2022-11-27T05:37:58;2.10;;;1.55;;
69414;SDS011;56608;43.530;-5.652;2022-11-27T05:39:01;3.80;;;1.60;;
69414;SDS011;56608;43.530;-5.652;2022-11-27T05:40:03;5.37;;;1.85;;
69414;SDS011;56608;43.530;-5.652;2022-11-27T05:41:06;3.83;;;1.60;;
69414;SDS011;56608;43.530;-5.652;2022-11-27T05:42:07;3.05;;;1.70;;
69414;SDS011;56608;43.530;-5.652;2022-11-27T05:43:08;2.30;;;1.40;;
69414;SDS011;56608;43.530;-5.652;2022-11-27T05:44:13;5.32;;;1.80;;
69414;SDS011;56608;43.530;-5.652;2022-11-27T05:45:15;4.72;;;1.90;;
69414;SDS011;56608;43.530;-5.652;2022-11-27T05:46:16;4.20;;;1.70;;
69414;SDS011;56608;43.530;-5.652;2022-11-27T05:47:20;2.58;;;1.60;;
69414;SDS011;56608;43.530;-5.652;2022-11-27T05:48:21;3.42;;;1.65;;
69414;SDS011;56608;43.530;-5.652;2022-11-27T05:49:23;2.15;;;1.62;;
69414;SDS011;56608;43.530;-5.652;2022-11-27T05:50:24;2.17;;;1.50;;
69414;SDS011;56608;43.530;-5.652;2022-11-27T05:51:25;3.50;;;1.65;;
69414;SDS011;56608;43.530;-5.652;2022-11-27T05:52:27;4.45;;;1.92;;
69414;SDS011;56608;43.530;-5.652;2022-11-27T05:53:28;3.42;;;1.50;;
69414;SDS011;56608;43.530;-5.652;2022-11-27T05:54:29;3.75;;;1.60;;
69414;SDS011;56608;43.530;-5.652;2022-11-27T05:55:31;3.65;;;1.70;;
69414;SDS011;56608;43.530;-5.652;2022-11-27T05:56:32;2.55;;;1.80;;
69414;SDS011;56608;43.530;-5.652;2022-11-27T05:57:34;3.15;;;1.50;;
69414;SDS011;56608;43.530;-5.652;2022-11-27T05:58:35;3.17;;;1.70;;
69414;SDS011;56608;43.530;-5.652;2022-11-27T05:59:37;4.53;;;1.80;;
69414;SDS011;56608;43.530;-5.652;2022-11-27T06:00:39;4.15;;;1.62;;
69414;SDS011;56608;43.530;-5.652;2022-11-27T06:01:40;2.42;;;1.40;;
69414;SDS011;56608;43.530;-5.652;2022-11-27T06:02:40;3.40;;;2.10;;
69414;SDS011;56608;43.530;-5.652;2022-11-27T06:03:42;1.92;;;1.37;;
69414;SDS011;56608;43.530;-5.652;2022-11-27T06:04:44;2.75;;;1.35;;
69414;SDS011;56608;43.530;-5.652;2022-11-27T06:05:45;7.60;;;1.60;;
69414;SDS011;56608;43.530;-5.652;2022-11-27T06:06:47;3.28;;;1.50;;
69414;SDS011;56608;43.530;-5.652;2022-11-27T06:07:48;2.67;;;1.60;;
69414;SDS011;56608;43.530;-5.652;2022-11-27T06:08:49;3.10;;;1.60;;
69414;SDS011;56608;43.530;-5.652;2022-11-27T06:09:50;4.40;;;1.90;;
69414;SDS011;56608;43.530;-5.652;2022-11-27T06:10:52;2.28;;;1.58;;
69414;SDS011;56608;43.530;-5.652;2022-11-27T06:11:53;2.25;;;1.30;;
69414;SDS011;56608;43.530;-5.652;2022-11-27T06:12:55;1.92;;;1.40;;
69414;SDS011;56608;43.530;-5.652;2022-11-27T06:13:56;3.30;;;1.40;;
69414;SDS011;56608;43.530;-5.652;2022-11-27T06:14:57;2.62;;;1.52;;
69414;SDS011;56608;43.530;-5.652;2022-11-27T06:16:02;1.58;;;1.10;;
69414;SDS011;56608;43.530;-5.652;2022-11-27T06:17:08;3.28;;;1.30;;
69414;SDS011;56608;43.530;-5.652;2022-11-27T06:18:09;2.70;;;1.15;;
69414;SDS011;56608;43.530;-5.652;2022-11-27T06:19:12;2.53;;;1.33;;
69414;SDS011;56608;43.530;-5.652;2022-11-27T06:20:13;1.98;;;1.00;;
69414;SDS011;56608;43.530;-5.652;2022-11-27T06:21:13;2.50;;;1.10;;
69414;SDS011;56608;43.530;-5.652;2022-11-27T06:22:15;2.47;;;1.27;;
69414;SDS011;56608;43.530;-5.652;2022-11-27T06:23:17;1.70;;;1.00;;
69414;SDS011;56608;43.530;-5.652;2022-11-27T06:24:19;1.40;;;0.95;;
69414;SDS011;56608;43.530;-5.652;2022-11-27T06:26:22;3.97;;;1.52;;
69414;SDS011;56608;43.530;-5.652;2022-11-27T06:27:25;2.90;;;1.42;;
69414;SDS011;56608;43.530;-5.652;2022-11-27T06:28:32;4.65;;;1.60;;
69414;SDS011;56608;43.530;-5.652;2022-11-27T06:29:35;3.60;;;1.80;;
69414;SDS011;56608;43.530;-5.652;2022-11-27T06:30:37;3.70;;;1.87;;
69414;SDS011;56608;43.530;-5.652;2022-11-27T06:31:38;2.50;;;1.30;;
69414;SDS011;56608;43.530;-5.652;2022-11-27T06:32:40;2.78;;;1.70;;
69414;SDS011;56608;43.530;-5.652;2022-11-27T06:33:41;2.35;;;1.50;;
69414;SDS011;56608;43.530;-5.652;2022-11-27T06:34:43;2.30;;;1.37;;
69414;SDS011;56608;43.530;-5.652;2022-11-27T06:35:44;3.10;;;1.90;;
69414;SDS011;56608;43.530;-5.652;2022-11-27T06:36:46;5.43;;;1.85;;
69414;SDS011;56608;43.530;-5.652;2022-11-27T06:37:47;3.40;;;1.70;;
69414;SDS011;56608;43.530;-5.652;2022-11-27T06:38:47;2.80;;;1.60;;
69414;SDS011;56608;43.530;-5.652;2022-11-27T06:39:49;3.40;;;1.60;;
69414;SDS011;56608;43.530;-5.652;2022-11-27T06:40:50;2.10;;;1.30;;
69414;SDS011;56608;43.530;-5.652;2022-11-27T06:41:52;3.15;;;1.67;;
69414;SDS011;56608;43.530;-5.652;2022-11-27T06:42:53;2.58;;;1.60;;
69414;SDS011;56608;43.530;-5.652;2022-11-27T06:43:56;3.40;;;1.70;;
69414;SDS011;56608;43.530;-5.652;2022-11-27T06:44:59;4.30;;;1.85;;
69414;SDS011;56608;43.530;-5.652;2022-11-27T06:46:00;3.50;;;1.95;;
69414;SDS011;56608;43.530;-5.652;2022-11-27T06:47:03;2.53;;;1.30;;
69414;SDS011;56608;43.530;-5.652;2022-11-27T06:48:04;8.07;;;2.08;;
69414;SDS011;56608;43.530;-5.652;2022-11-27T06:49:06;3.55;;;2.10;;
69414;SDS011;56608;43.530;-5.652;2022-11-27T06:50:07;4.10;;;1.83;;
69414;SDS011;56608;43.530;-5.652;2022-11-27T06:51:10;3.12;;;1.70;;
69414;SDS011;56608;43.530;-5.652;2022-11-27T06:52:14;3.75;;;2.05;;
69414;SDS011;56608;43.530;-5.652;2022-11-27T06:53:15;3.33;;;1.85;;
69414;SDS011;56608;43.530;-5.652;2022-11-27T06:54:16;5.28;;;2.28;;
69414;SDS011;56608;43.530;-5.652;2022-11-27T06:55:18;5.25;;;2.55;;
69414;SDS011;56608;43.530;-5.652;2022-11-27T06:56:20;5.07;;;2.35;;
69414;SDS011;56608;43.530;-5.652;2022-11-27T06:57:23;5.90;;;2.42;;
69414;SDS011;56608;43.530;-5.652;2022-11-27T06:58:24;2.70;;;1.80;;
69414;SDS011;56608;43.530;-5.652;2022-11-27T06:59:26;3.22;;;1.95;;
69414;SDS011;56608;43.530;-5.652;2022-11-27T07:00:27;6.27;;;1.93;;
69414;SDS011;56608;43.530;-5.652;2022-11-27T07:01:29;6.10;;;2.10;;